Malvinas Argentinas Airport
SAWH : rendu visible

Aérodrome :











RETROUVEZ-NOUS SUR...

 
LOGIN :

S'inscrire | Disclaimer

   EN    FR    IT 

 









Légende :    VFR   VFR Marginal   IFR   IFR Intensif   IFR Très Intensif
Visi : 
Plafond : 
>= 8 km
>= 3000ft
5 à 8 km
1000 à 3000 ft
1500m à 5 km
500 à 1000 ft
800 à 1500m
200 à 500 ft
< 800m
< 200 ft
Symboles :   Orages  Brouillard  Fortes neiges  Fortes précipitations  Vent > 20 kt






- Altitude de l'aérodrome : 102 ft
- Code IATA : USH


SAWH - Malvinas Argentinas

DERNIER METAR :
  • 021100Z 23021G31KT 9999 -RA OVC010 03/00 Q0997

METARs EXPIRÉS :
  • 021000Z 23019G29KT 9999 -RA OVC010 03/M00 Q0996
  • 020900Z 23017KT 9999 -RA BKN010 BKN035 OVC070 03/M01 Q0994

TAF TAF SAWH
Valide du 02 à 06h jusqu'au 03 à 06h UTC


020500Z 0206/0306 27005KT 9000 DZ BKN030 OVC080 TX04/0218Z TNM01/0210Z
BECMG 0207/0209 23015G30KT 5000 SNRA SCT010 OVC050
BECMG 0212/0214 8000 -SNRA SCT020 BKN030
BECMG 0301/0303 VRB03KT NSW BKN025
FIR SAVF / Amérique du Sud



MET'MAP, la Météo Aéronautique d'un coup d'oeil ! - Copyright ORBIFLY Décembre 2007 - Disclaimer

ORBIFLY MET'MAP TEAM :

Programmation & Développement : Alexandra Zaïnal
Sur une idée originale de : Baudouin d'Aumeries
Assistance à la programmation : Marc-Olivier Méhu
Soutien technique & logistique : Manuel Goepfert

Contact : metmap@orbifly.com




SOURCES & CREDITS :

   NOAA       Earth
Advisory